Time;durP1;ratioP1;P1;durP2;ratioP2;P2;SDS_P1;SDS_P2;PMS_P1;PMS_P2;Temp;Humidity;BMP_temperature;BMP_pressure;BME280_temperature;BME280_humidity;BME280_pressure;Samples;Min_cycle;Max_cycle;Signal;HPM_P1;HPM_P2
2021/04/26 00:00:47;;;;;;;4.97;1.60;;;16.80;56.40;;;;;;5013895;28;20056;-60
2021/04/26 00:03:12;;;;;;;5.72;1.70;;;16.80;56.40;;;;;;5020408;28;20037;-62
2021/04/26 00:05:38;;;;;;;4.47;1.50;;;16.70;56.40;;;;;;5020447;28;20500;-60
2021/04/26 00:08:04;;;;;;;5.13;1.83;;;16.80;56.50;;;;;;5017788;28;20029;-63
2021/04/26 00:10:29;;;;;;;4.70;1.60;;;16.70;56.40;;;;;;5017690;28;20053;-64
2021/04/26 00:12:55;;;;;;;5.28;1.40;;;16.70;56.40;;;;;;5017554;28;20101;-62
2021/04/26 00:15:29;;;;;;;5.13;1.40;;;16.70;56.40;;;;;;5029816;28;20481;-63
2021/04/26 00:17:55;;;;;;;3.47;1.40;;;16.70;56.40;;;;;;5019108;28;20385;-61
2021/04/26 00:23:00;;;;;;;5.47;1.30;;;16.70;56.40;;;;;;5027051;28;20050;-67
2021/04/26 00:25:27;;;;;;;6.22;1.70;;;16.70;56.40;;;;;;5027612;28;20480;-66
2021/04/26 00:27:53;;;;;;;6.13;1.83;;;16.60;56.40;;;;;;5029030;28;20530;-69
2021/04/26 00:30:22;;;;;;;4.50;1.30;;;16.70;56.50;;;;;;5028591;28;20029;-67
2021/04/26 00:32:49;;;;;;;5.20;1.60;;;16.70;56.40;;;;;;5010176;28;20100;-66
2021/04/26 00:35:15;;;;;;;4.25;1.50;;;16.60;56.40;;;;;;5010598;28;20405;-66
2021/04/26 00:37:42;;;;;;;3.97;1.30;;;16.60;56.40;;;;;;5009242;28;20022;-67
2021/04/26 00:40:09;;;;;;;3.92;1.50;;;16.60;56.40;;;;;;5008809;28;20040;-66
2021/04/26 00:42:35;;;;;;;5.22;1.42;;;16.60;56.50;;;;;;5007727;28;20500;-66
2021/04/26 00:45:03;;;;;;;3.78;1.42;;;16.60;56.40;;;;;;5008512;28;20539;-66
2021/04/26 00:47:29;;;;;;;2.40;1.30;;;16.60;56.40;;;;;;5012843;28;20121;-67
2021/04/26 00:49:54;;;;;;;4.10;1.40;;;16.60;56.50;;;;;;5012493;28;20120;-67
2021/04/26 00:52:20;;;;;;;4.05;1.48;;;16.60;56.50;;;;;;5013460;28;20045;-68
2021/04/26 00:54:45;;;;;;;4.15;1.60;;;16.50;56.60;;;;;;5009895;28;20034;-66
2021/04/26 00:57:12;;;;;;;2.97;1.42;;;16.60;56.50;;;;;;5014114;28;20026;-67
2021/04/26 00:59:38;;;;;;;3.42;1.30;;;16.60;56.40;;;;;;5013989;28;20026;-67
2021/04/26 01:02:04;;;;;;;3.97;1.20;;;16.50;56.50;;;;;;5013555;28;20535;-66
2021/04/26 01:04:31;;;;;;;4.53;1.10;;;16.50;56.40;;;;;;5013556;28;20037;-67
2021/04/26 01:06:57;;;;;;;6.45;1.52;;;16.50;56.40;;;;;;5008180;28;20069;-66
2021/04/26 01:09:22;;;;;;;3.13;1.40;;;16.50;56.40;;;;;;5012958;28;20102;-65
2021/04/26 01:12:03;;;;;;;3.33;1.15;;;16.50;56.30;;;;;;4995913;28;20042;-66
2021/04/26 01:15:14;;;;;;;3.42;1.40;;;16.50;56.30;;;;;;4994321;28;20053;-65
2021/04/26 01:18:08;;;;;;;3.47;1.35;;;16.40;56.30;;;;;;5009279;28;20473;-68
2021/04/26 01:21:05;;;;;;;4.63;1.38;;;16.40;56.30;;;;;;5010983;28;20042;-66
2021/04/26 01:24:13;;;;;;;5.05;1.40;;;16.40;56.30;;;;;;5011754;28;20034;-66
2021/04/26 01:26:42;;;;;;;3.40;1.20;;;16.40;56.30;;;;;;5027138;28;20504;-66
2021/04/26 01:29:17;;;;;;;2.72;1.20;;;16.40;56.30;;;;;;5013584;28;20392;-66
2021/04/26 01:31:52;;;;;;;3.42;1.45;;;16.40;56.40;;;;;;5012083;28;20033;-66
2021/04/26 01:34:18;;;;;;;4.20;1.25;;;16.40;56.50;;;;;;5012844;28;20033;-66
2021/04/26 01:36:45;;;;;;;4.28;1.20;;;16.30;56.40;;;;;;5012391;28;20030;-66
2021/04/26 01:39:10;;;;;;;4.63;1.17;;;16.30;56.50;;;;;;5011974;28;20034;-67
2021/04/26 01:41:37;;;;;;;4.18;1.40;;;16.30;56.50;;;;;;5011881;28;20033;-66
2021/04/26 01:44:04;;;;;;;2.42;1.30;;;16.30;56.50;;;;;;5011421;28;20034;-66
2021/04/26 01:46:30;;;;;;;4.38;1.17;;;16.30;56.40;;;;;;5010937;28;20057;-66
2021/04/26 01:48:57;;;;;;;2.83;1.30;;;16.30;56.60;;;;;;5011467;28;20037;-68
2021/04/26 01:51:23;;;;;;;2.25;1.13;;;16.30;56.50;;;;;;5012355;28;20037;-67
2021/04/26 01:53:49;;;;;;;4.20;1.33;;;16.30;56.50;;;;;;5011415;28;20125;-66
2021/04/26 01:56:17;;;;;;;2.40;1.00;;;16.30;56.60;;;;;;5011567;28;20406;-66
2021/04/26 01:58:46;;;;;;;5.00;1.70;;;16.30;56.60;;;;;;5028018;28;20018;-66
2021/04/26 02:01:18;;;;;;;2.78;1.10;;;16.20;56.50;;;;;;5012713;28;20018;-66
2021/04/26 02:03:50;;;;;;;2.47;0.95;;;16.20;56.60;;;;;;5012042;28;20034;-66
2021/04/26 02:06:17;;;;;;;3.78;1.10;;;16.20;56.60;;;;;;5012399;28;20113;-66
2021/04/26 02:08:43;;;;;;;3.35;0.90;;;16.20;56.50;;;;;;5012602;28;20033;-66
2021/04/26 02:11:12;;;;;;;3.40;0.90;;;16.30;56.50;;;;;;5005441;28;20040;-65
2021/04/26 02:13:39;;;;;;;2.65;1.02;;;16.20;56.60;;;;;;5005251;28;20092;-66
2021/04/26 02:16:05;;;;;;;2.80;1.15;;;16.20;56.50;;;;;;5010891;28;20484;-66
2021/04/26 02:18:31;;;;;;;4.20;1.10;;;16.20;56.60;;;;;;5012358;28;20121;-66
2021/04/26 02:20:57;;;;;;;3.42;1.10;;;16.20;56.60;;;;;;5007842;28;20509;-66
2021/04/26 02:23:24;;;;;;;2.92;1.17;;;16.20;56.60;;;;;;5010964;28;20049;-68
2021/04/26 02:25:50;;;;;;;4.32;1.02;;;16.10;56.40;;;;;;5012032;28;20427;-66
2021/04/26 02:28:16;;;;;;;4.05;1.20;;;16.20;56.40;;;;;;5011014;28;20022;-66
2021/04/26 02:30:41;;;;;;;3.40;1.10;;;16.10;56.50;;;;;;5009626;28;20030;-66
2021/04/26 02:33:18;;;;;;;3.35;1.23;;;16.10;56.60;;;;;;5012294;28;20034;-67
2021/04/26 02:35:48;;;;;;;3.42;1.30;;;16.10;56.60;;;;;;5011693;28;20045;-66
2021/04/26 02:38:30;;;;;;;3.90;1.00;;;16.10;56.70;;;;;;5012186;28;20488;-67
2021/04/26 02:41:15;;;;;;;1.40;0.95;;;16.00;56.80;;;;;;5011463;28;20038;-67
2021/04/26 02:43:43;;;;;;;3.00;1.17;;;16.00;56.90;;;;;;5011978;28;20030;-66
2021/04/26 02:46:10;;;;;;;2.28;1.00;;;16.00;56.80;;;;;;5011846;28;20109;-67
2021/04/26 02:48:42;;;;;;;3.60;1.15;;;16.00;56.80;;;;;;5003351;28;20378;-66
2021/04/26 02:51:07;;;;;;;;;;;15.90;56.80;;;;;;5003781;28;20042;-66
2021/04/26 02:53:33;;;;;;;2.30;1.10;;;16.00;56.90;;;;;;5012042;28;20400;-67
2021/04/26 02:56:11;;;;;;;3.20;1.17;;;16.00;56.70;;;;;;5011421;28;20436;-66
2021/04/26 02:58:38;;;;;;;2.45;0.90;;;15.90;56.90;;;;;;5011301;28;20567;-66
2021/04/26 03:01:08;;;;;;;3.90;1.13;;;15.90;56.90;;;;;;5010218;28;20088;-66
2021/04/26 03:03:35;;;;;;;2.78;0.90;;;15.90;56.90;;;;;;5010094;28;20425;-66
2021/04/26 03:06:01;;;;;;;3.40;1.30;;;15.90;57.10;;;;;;5010611;28;20369;-66
2021/04/26 03:08:29;;;;;;;2.63;0.88;;;15.80;57.20;;;;;;5011728;28;20052;-66
2021/04/26 03:10:55;;;;;;;3.83;0.90;;;15.80;57.10;;;;;;5010395;28;20108;-66
2021/04/26 03:13:21;;;;;;;2.80;0.80;;;15.90;57.00;;;;;;5011343;28;20034;-66
2021/04/26 03:15:47;;;;;;;3.70;0.80;;;15.90;57.00;;;;;;5011316;28;20021;-67
2021/04/26 03:18:14;;;;;;;2.20;0.98;;;15.90;57.00;;;;;;5009695;28;20079;-66
2021/04/26 03:20:40;;;;;;;4.88;1.15;;;15.90;57.00;;;;;;5002495;28;20026;-66
2021/04/26 03:23:08;;;;;;;1.98;0.98;;;15.80;57.10;;;;;;5011587;28;20032;-67
2021/04/26 03:25:34;;;;;;;2.35;0.93;;;15.90;57.10;;;;;;5010953;28;20038;-66
2021/04/26 03:28:00;;;;;;;3.05;1.00;;;15.80;57.20;;;;;;5010611;28;20034;-66
2021/04/26 03:30:27;;;;;;;2.10;0.90;;;15.80;57.20;;;;;;5009971;28;20030;-64
2021/04/26 03:32:54;;;;;;;2.25;0.90;;;15.70;57.20;;;;;;5011286;28;20033;-66
2021/04/26 03:35:21;;;;;;;3.00;0.93;;;15.80;57.20;;;;;;5009701;28;20030;-67
2021/04/26 03:37:50;;;;;;;2.83;0.90;;;15.70;57.20;;;;;;4997692;28;20026;-66
2021/04/26 03:40:18;;;;;;;2.65;1.02;;;15.70;57.20;;;;;;5011232;28;20041;-68
2021/04/26 03:42:45;;;;;;;2.13;1.00;;;15.70;57.30;;;;;;5010977;28;20030;-66
2021/04/26 03:45:16;;;;;;;2.30;0.88;;;15.70;57.30;;;;;;5011071;28;20030;-66
2021/04/26 03:47:42;;;;;;;2.63;0.90;;;15.70;57.20;;;;;;5009546;28;20025;-66
2021/04/26 03:50:09;;;;;;;3.17;1.00;;;15.70;57.20;;;;;;5011188;28;20112;-68
2021/04/26 03:52:35;;;;;;;3.05;1.00;;;15.70;57.30;;;;;;5011074;28;20038;-66
2021/04/26 03:55:00;;;;;;;2.47;1.02;;;15.70;57.20;;;;;;5009367;28;20157;-67
2021/04/26 03:57:26;;;;;;;2.05;0.80;;;15.70;57.20;;;;;;5010849;28;20128;-66
2021/04/26 03:59:51;;;;;;;3.17;1.10;;;15.70;57.20;;;;;;5010714;28;20568;-66
2021/04/26 04:02:17;;;;;;;4.15;1.17;;;15.70;57.20;;;;;;5008330;28;20076;-68
2021/04/26 04:04:42;;;;;;;2.17;0.93;;;15.70;57.20;;;;;;5009510;28;20034;-66
2021/04/26 04:07:08;;;;;;;4.20;1.10;;;15.70;57.10;;;;;;5010833;28;20033;-65
2021/04/26 04:09:34;;;;;;;3.92;1.15;;;15.70;57.20;;;;;;5008355;28;20551;-68
2021/04/26 04:11:59;;;;;;;3.53;1.00;;;15.70;57.30;;;;;;5010911;28;20421;-66
2021/04/26 04:14:25;;;;;;;5.03;1.17;;;15.70;57.30;;;;;;5010375;28;20503;-66
2021/04/26 04:16:50;;;;;;;2.80;0.90;;;15.70;57.30;;;;;;5010809;28;20126;-66
2021/04/26 04:19:16;;;;;;;2.75;1.00;;;15.60;57.30;;;;;;5010487;28;20034;-68
2021/04/26 04:21:41;;;;;;;4.15;0.93;;;15.70;57.20;;;;;;5013194;28;20022;-66
2021/04/26 04:24:07;;;;;;;3.47;1.05;;;15.70;57.30;;;;;;5009583;28;20073;-66
2021/04/26 04:26:33;;;;;;;2.90;1.00;;;15.70;57.20;;;;;;5009163;28;20462;-66
2021/04/26 04:28:59;;;;;;;2.60;1.00;;;15.70;57.30;;;;;;5014126;28;20110;-68
2021/04/26 04:31:25;;;;;;;2.22;1.00;;;15.60;57.10;;;;;;5010247;28;20038;-66
2021/04/26 04:33:51;;;;;;;2.60;1.10;;;15.70;57.10;;;;;;5008440;28;20048;-66
2021/04/26 04:36:16;;;;;;;2.30;0.90;;;15.70;57.00;;;;;;5001171;28;20525;-67
2021/04/26 04:38:42;;;;;;;4.35;1.38;;;15.80;56.90;;;;;;5000213;28;20032;-66
2021/04/26 04:41:07;;;;;;;1.88;1.00;;;15.80;56.80;;;;;;5005657;28;20030;-68
2021/04/26 04:43:33;;;;;;;3.35;1.20;;;15.80;56.70;;;;;;5005956;28;20117;-66
2021/04/26 04:45:59;;;;;;;2.70;1.00;;;15.90;56.60;;;;;;5006929;28;20032;-67
2021/04/26 04:48:25;;;;;;;2.70;1.30;;;15.90;56.40;;;;;;5007500;28;20039;-66
2021/04/26 04:50:50;;;;;;;3.95;1.20;;;15.90;56.30;;;;;;5007072;28;20472;-67
2021/04/26 04:53:16;;;;;;;4.20;1.10;;;16.00;56.30;;;;;;5006943;28;20030;-66
2021/04/26 04:55:42;;;;;;;3.08;1.10;;;16.00;56.10;;;;;;5004828;28;20939;-66
2021/04/26 04:58:08;;;;;;;7.20;1.40;;;16.00;56.10;;;;;;5005010;28;20032;-66
2021/04/26 05:00:33;;;;;;;4.15;1.20;;;16.00;56.20;;;;;;5006605;28;20030;-67
2021/04/26 05:02:59;;;;;;;6.43;1.60;;;16.20;56.30;;;;;;5006953;28;20033;-68
2021/04/26 05:05:24;;;;;;;4.60;1.23;;;16.10;56.90;;;;;;5002772;28;20042;-69
2021/04/26 05:07:50;;;;;;;4.10;1.30;;;16.00;57.00;;;;;;5003668;28;20030;-68
2021/04/26 05:10:15;;;;;;;2.85;1.40;;;16.00;57.00;;;;;;5004036;28;20561;-68
2021/04/26 05:12:42;;;;;;;4.88;1.50;;;15.90;57.10;;;;;;5003418;28;20033;-68
2021/04/26 05:15:08;;;;;;;3.72;1.20;;;16.00;57.00;;;;;;5006814;28;20034;-67
2021/04/26 05:17:33;;;;;;;9.30;1.52;;;16.00;56.80;;;;;;5006190;28;20084;-67
2021/04/26 05:19:59;;;;;;;5.55;1.35;;;16.10;56.70;;;;;;5004837;28;20026;-69
2021/04/26 05:22:25;;;;;;;8.20;1.67;;;16.10;56.50;;;;;;5007295;28;20026;-67
2021/04/26 05:24:53;;;;;;;9.30;1.67;;;16.20;56.40;;;;;;5006613;28;20112;-68
2021/04/26 05:27:18;;;;;;;10.10;1.30;;;16.20;56.60;;;;;;5006462;28;20111;-67
2021/04/26 05:29:44;;;;;;;11.18;1.73;;;16.40;57.20;;;;;;5000803;28;20504;-66
2021/04/26 05:32:09;;;;;;;8.13;1.60;;;16.50;56.40;;;;;;4999506;28;20033;-67
2021/04/26 05:34:35;;;;;;;10.77;1.70;;;16.60;56.50;;;;;;5005761;28;20038;-67
2021/04/26 05:37:00;;;;;;;8.13;1.50;;;16.60;55.80;;;;;;4991389;28;20401;-67
2021/04/26 05:39:26;;;;;;;6.60;1.52;;;16.70;55.70;;;;;;5005417;28;20156;-68
2021/04/26 05:41:51;;;;;;;8.90;1.80;;;16.80;55.20;;;;;;5005514;28;20108;-68
2021/04/26 05:44:17;;;;;;;7.22;1.40;;;16.90;54.90;;;;;;5003342;28;20030;-68
2021/04/26 05:46:42;;;;;;;9.43;1.90;;;16.90;54.40;;;;;;4999291;28;20037;-68
2021/04/26 05:49:08;;;;;;;6.35;1.50;;;17.00;54.10;;;;;;5000735;28;20033;-69
2021/04/26 05:51:33;;;;;;;4.45;1.17;;;17.10;53.90;;;;;;4999424;28;20052;-68
2021/04/26 05:53:59;;;;;;;10.27;1.92;;;17.10;53.40;;;;;;5000782;28;20044;-67
2021/04/26 05:56:25;;;;;;;8.23;1.60;;;17.30;53.30;;;;;;5005365;28;20036;-68
2021/04/26 05:58:51;;;;;;;6.15;1.30;;;17.40;53.00;;;;;;5005686;28;20405;-68
2021/04/26 06:01:17;;;;;;;5.15;1.42;;;17.40;53.00;;;;;;5004707;28;20032;-68
2021/04/26 06:03:43;;;;;;;12.60;1.60;;;17.50;52.90;;;;;;5020514;28;20034;-69
2021/04/26 06:06:09;;;;;;;7.28;1.63;;;17.60;53.10;;;;;;5004904;28;20429;-69
2021/04/26 06:08:35;;;;;;;5.03;1.63;;;17.70;52.50;;;;;;5001481;28;20033;-68
2021/04/26 06:11:00;;;;;;;5.38;1.50;;;17.80;52.40;;;;;;5000471;28;20108;-69
2021/04/26 06:13:26;;;;;;;14.90;1.90;;;17.90;52.00;;;;;;5002531;28;20511;-69
2021/04/26 06:15:52;;;;;;;12.55;1.70;;;18.00;51.70;;;;;;4999318;28;20022;-67
2021/04/26 06:18:21;;;;;;;12.02;1.92;;;18.00;51.10;;;;;;4999207;28;20111;-69
2021/04/26 06:20:48;;;;;;;11.68;1.95;;;18.10;49.90;;;;;;5002205;28;20021;-67
2021/04/26 06:23:15;;;;;;;7.10;1.70;;;18.20;49.50;;;;;;5004158;28;20123;-67
2021/04/26 06:25:40;;;;;;;7.00;1.55;;;18.20;49.80;;;;;;5003093;28;20037;-67
2021/04/26 06:28:07;;;;;;;8.48;1.65;;;18.30;49.70;;;;;;5004912;28;20029;-67
2021/04/26 06:30:34;;;;;;;5.00;1.30;;;18.40;49.50;;;;;;5004424;28;20030;-68
2021/04/26 06:33:00;;;;;;;7.30;1.38;;;18.40;49.30;;;;;;4998097;28;20038;-67
2021/04/26 06:35:26;;;;;;;7.95;1.58;;;18.60;49.20;;;;;;5003179;28;20025;-68
2021/04/26 06:37:52;;;;;;;5.30;1.50;;;18.60;48.50;;;;;;4995663;28;20022;-68
2021/04/26 06:40:18;;;;;;;6.05;1.50;;;18.70;48.90;;;;;;5001425;28;20049;-70
2021/04/26 06:42:44;;;;;;;6.60;1.40;;;18.80;48.80;;;;;;5002848;28;20160;-67
2021/04/26 06:45:11;;;;;;;6.03;1.80;;;18.90;48.60;;;;;;5005686;28;20037;-68
2021/04/26 06:47:37;;;;;;;4.93;1.60;;;18.90;48.50;;;;;;5005546;28;20060;-69
2021/04/26 06:50:04;;;;;;;4.05;1.30;;;19.00;48.70;;;;;;5003764;28;20061;-69
2021/04/26 06:52:30;;;;;;;5.13;1.42;;;19.10;48.10;;;;;;5004181;28;20030;-68
2021/04/26 06:54:55;;;;;;;6.65;1.60;;;19.10;48.00;;;;;;5004136;28;20049;-69
2021/04/26 06:57:21;;;;;;;4.22;1.42;;;19.20;47.80;;;;;;5004629;28;20066;-69
2021/04/26 06:59:46;;;;;;;8.35;1.50;;;19.30;47.80;;;;;;5005600;28;20588;-68
2021/04/26 07:02:12;;;;;;;5.40;1.48;;;19.30;47.40;;;;;;5005138;28;20389;-68
2021/04/26 07:04:38;;;;;;;4.85;1.38;;;19.40;47.30;;;;;;5005200;28;20447;-69
2021/04/26 07:07:03;;;;;;;6.15;1.40;;;19.50;47.30;;;;;;5004945;28;20041;-69
2021/04/26 07:09:29;;;;;;;4.88;1.33;;;19.60;47.10;;;;;;5004180;28;20037;-67
2021/04/26 07:11:55;;;;;;;5.00;1.40;;;19.70;46.90;;;;;;5005235;28;20091;-68
2021/04/26 07:14:21;;;;;;;5.88;1.50;;;19.70;47.00;;;;;;5003661;28;20048;-68
2021/04/26 07:16:47;;;;;;;4.80;1.30;;;19.70;46.30;;;;;;5005497;28;20670;-68
2021/04/26 07:19:13;;;;;;;5.60;1.50;;;19.70;46.20;;;;;;5003513;28;20121;-69
2021/04/26 07:21:38;;;;;;;5.25;1.25;;;19.80;46.30;;;;;;5005355;28;20469;-68
2021/04/26 07:24:04;;;;;;;4.18;1.20;;;19.90;46.00;;;;;;5003391;28;20078;-67
2021/04/26 07:26:30;;;;;;;5.60;1.33;;;19.90;46.10;;;;;;5005411;28;20034;-67
2021/04/26 07:28:55;;;;;;;3.92;1.30;;;19.90;45.50;;;;;;5005184;28;20530;-69
2021/04/26 07:31:21;;;;;;;4.30;1.30;;;19.90;45.70;;;;;;5003569;28;20527;-68
2021/04/26 07:33:47;;;;;;;3.47;1.20;;;20.10;45.20;;;;;;5004881;28;20037;-68
2021/04/26 07:36:12;;;;;;;4.22;1.15;;;20.10;45.20;;;;;;5004893;28;20033;-68
2021/04/26 07:38:38;;;;;;;3.67;1.20;;;20.20;45.40;;;;;;5004956;28;20489;-67
2021/04/26 07:41:04;;;;;;;4.38;1.25;;;20.30;44.90;;;;;;5003694;28;20049;-68
2021/04/26 07:43:29;;;;;;;4.20;1.65;;;20.40;44.90;;;;;;5005000;28;20513;-67
2021/04/26 07:45:55;;;;;;;4.47;1.27;;;20.40;44.70;;;;;;5003576;28;20046;-68
2021/04/26 07:48:20;;;;;;;4.80;1.25;;;20.40;44.70;;;;;;5003544;28;20033;-68
2021/04/26 07:50:46;;;;;;;4.85;1.30;;;20.50;44.30;;;;;;5005530;28;20079;-68
2021/04/26 07:53:12;;;;;;;6.20;1.40;;;20.60;44.50;;;;;;5007538;28;20048;-68
2021/04/26 07:55:38;;;;;;;4.43;1.27;;;20.70;44.40;;;;;;5008739;28;20580;-69
2021/04/26 07:58:04;;;;;;;3.58;1.20;;;20.70;43.90;;;;;;5007771;28;20049;-69
2021/04/26 08:00:31;;;;;;;3.00;1.13;;;20.80;44.10;;;;;;5007322;28;20037;-69
2021/04/26 08:02:56;;;;;;;3.05;1.20;;;20.90;43.90;;;;;;5007327;28;20117;-68
2021/04/26 08:05:22;;;;;;;4.25;1.33;;;20.90;44.00;;;;;;5008403;28;20157;-68
2021/04/26 08:07:47;;;;;;;3.50;1.27;;;21.00;43.60;;;;;;5007835;28;20034;-69
2021/04/26 08:10:14;;;;;;;2.90;1.20;;;21.00;43.40;;;;;;5008471;28;20065;-67
2021/04/26 08:12:39;;;;;;;3.63;1.20;;;21.10;43.30;;;;;;5007309;28;20022;-69
2021/04/26 08:15:07;;;;;;;3.33;1.30;;;21.10;43.10;;;;;;5008277;28;20040;-68
2021/04/26 08:17:33;;;;;;;2.35;1.10;;;21.20;43.20;;;;;;5008403;28;20511;-69
2021/04/26 08:19:58;;;;;;;4.53;1.30;;;21.20;43.00;;;;;;5007072;28;20033;-68
2021/04/26 08:22:24;;;;;;;2.95;1.30;;;21.30;43.10;;;;;;5006838;28;20064;-68
2021/04/26 08:24:50;;;;;;;3.03;1.00;;;21.30;42.70;;;;;;5006809;28;20037;-67
2021/04/26 08:27:15;;;;;;;3.42;1.30;;;21.40;42.80;;;;;;5008611;28;20034;-68
2021/04/26 08:29:41;;;;;;;2.63;1.20;;;21.40;42.60;;;;;;5008163;28;20413;-67
2021/04/26 08:32:07;;;;;;;2.92;1.20;;;21.50;42.50;;;;;;5001560;28;20560;-69
2021/04/26 08:34:32;;;;;;;2.15;1.10;;;21.50;42.20;;;;;;5002556;28;20419;-68
2021/04/26 08:36:58;;;;;;;3.00;1.00;;;21.50;42.30;;;;;;5008220;28;20038;-68
2021/04/26 08:39:24;;;;;;;2.22;1.10;;;21.60;42.40;;;;;;5007973;28;20116;-67
2021/04/26 08:41:49;;;;;;;3.20;1.15;;;21.60;42.00;;;;;;5007650;28;20623;-67
2021/04/26 08:44:15;;;;;;;2.50;1.00;;;21.70;42.10;;;;;;5007353;28;20420;-69
2021/04/26 08:46:42;;;;;;;2.88;1.00;;;21.70;42.00;;;;;;5006412;28;20404;-67
2021/04/26 08:49:09;;;;;;;2.65;1.10;;;21.80;41.90;;;;;;5007881;28;20033;-70
2021/04/26 08:51:36;;;;;;;2.88;1.20;;;21.70;41.70;;;;;;5007631;28;20045;-70
2021/04/26 08:54:02;;;;;;;2.72;1.20;;;21.80;41.70;;;;;;5007435;28;20527;-68
2021/04/26 08:56:28;;;;;;;4.35;1.20;;;21.80;41.50;;;;;;5007836;28;20053;-68
2021/04/26 08:58:53;;;;;;;2.60;1.10;;;21.90;41.60;;;;;;5014835;28;20389;-68
2021/04/26 09:01:19;;;;;;;3.03;0.90;;;21.90;41.50;;;;;;5004757;28;20029;-68
2021/04/26 09:03:46;;;;;;;3.55;0.95;;;21.90;41.30;;;;;;5004113;28;20497;-67
2021/04/26 09:06:12;;;;;;;2.22;0.90;;;22.00;41.30;;;;;;5006910;28;20026;-68
2021/04/26 09:08:38;;;;;;;5.47;1.50;;;22.00;41.30;;;;;;5007076;28;20559;-67
2021/04/26 09:11:05;;;;;;;2.50;1.10;;;22.00;41.10;;;;;;5007293;28;20025;-68
2021/04/26 09:13:44;;;;;;;4.15;1.23;;;22.10;41.00;;;;;;5007108;28;20782;-67
2021/04/26 09:16:21;;;;;;;3.75;1.13;;;22.10;40.90;;;;;;5000606;28;20536;-67
2021/04/26 09:18:56;;;;;;;1.80;0.95;;;22.10;41.00;;;;;;5005722;28;20049;-68
2021/04/26 09:21:37;;;;;;;4.07;1.30;;;22.10;40.80;;;;;;5005588;28;20072;-68
2021/04/26 09:24:36;;;;;;;1.67;0.90;;;22.20;40.70;;;;;;4999134;28;20038;-67
2021/04/26 09:27:14;;;;;;;3.03;1.10;;;22.20;40.50;;;;;;5006998;28;20142;-67
2021/04/26 09:29:40;;;;;;;3.45;1.10;;;22.30;40.60;;;;;;5005602;28;20460;-67
2021/04/26 09:32:12;;;;;;;2.83;1.17;;;22.30;40.20;;;;;;5006970;28;20030;-67
2021/04/26 09:34:41;;;;;;;1.50;0.80;;;22.30;40.80;;;;;;5005199;28;20065;-67
2021/04/26 09:37:28;;;;;;;2.63;1.00;;;22.40;40.00;;;;;;5005576;28;20034;-68
2021/04/26 09:40:14;;;;;;;2.75;0.90;;;22.40;39.80;;;;;;5021621;28;20784;-67
2021/04/26 09:42:45;;;;;;;2.83;1.10;;;22.50;39.90;;;;;;5005453;28;20444;-68
2021/04/26 09:45:26;;;;;;;2.25;1.10;;;22.50;39.80;;;;;;5005420;28;20108;-68
2021/04/26 09:48:11;;;;;;;;;;;22.60;39.60;;;;;;5005771;28;20084;-67
2021/04/26 09:50:57;;;;;;;3.22;0.95;;;22.60;39.60;;;;;;5006245;28;19960;-68
2021/04/26 09:53:32;;;;;;;2.85;0.98;;;22.60;39.60;;;;;;5000945;28;20026;-68
2021/04/26 09:56:09;;;;;;;1.73;0.80;;;22.70;39.60;;;;;;5004701;28;20460;-67
2021/04/26 09:58:35;;;;;;;2.58;0.90;;;22.70;39.40;;;;;;5006550;28;20034;-68
2021/04/26 10:01:01;;;;;;;1.13;0.80;;;22.80;39.50;;;;;;5006134;28;20036;-68
2021/04/26 10:03:27;;;;;;;1.77;0.90;;;22.80;39.30;;;;;;5005889;28;20080;-67
2021/04/26 10:05:52;;;;;;;2.20;1.05;;;22.80;39.10;;;;;;5002743;28;20030;-68
2021/04/26 10:08:18;;;;;;;4.63;1.17;;;22.80;39.00;;;;;;5006477;28;20104;-68
2021/04/26 10:10:45;;;;;;;3.70;0.95;;;22.90;39.80;;;;;;5006168;28;20580;-67
2021/04/26 10:13:11;;;;;;;2.10;0.93;;;22.90;39.10;;;;;;5005065;28;20121;-68
2021/04/26 10:15:37;;;;;;;2.03;0.93;;;22.90;39.20;;;;;;5005285;28;20560;-67
2021/04/26 10:18:07;;;;;;;1.88;0.90;;;22.90;39.10;;;;;;5006303;28;20366;-67
2021/04/26 10:20:33;;;;;;;2.63;1.00;;;23.00;38.90;;;;;;5006083;28;20436;-68
2021/04/26 10:22:59;;;;;;;2.08;0.93;;;23.00;39.00;;;;;;5004552;28;20038;-68
2021/04/26 10:25:39;;;;;;;1.45;0.90;;;23.00;38.80;;;;;;5006005;28;20083;-67
2021/04/26 10:28:27;;;;;;;4.17;0.90;;;23.00;39.00;;;;;;5006034;28;20061;-68
2021/04/26 10:31:13;;;;;;;1.75;0.80;;;23.00;38.70;;;;;;5005970;28;20902;-68
2021/04/26 10:34:00;;;;;;;3.78;1.00;;;23.00;38.80;;;;;;5003973;28;20117;-67
2021/04/26 10:36:41;;;;;;;1.75;0.88;;;23.10;38.70;;;;;;5005697;28;20040;-68
2021/04/26 10:39:12;;;;;;;2.97;0.90;;;23.00;38.80;;;;;;4999992;28;20427;-69
2021/04/26 10:41:59;;;;;;;6.65;1.00;;;23.00;38.80;;;;;;5000135;28;20022;-67
2021/04/26 10:44:50;;;;;;;3.83;1.00;;;23.10;39.10;;;;;;5020517;28;20041;-68
2021/04/26 10:47:29;;;;;;;3.28;0.98;;;23.00;39.30;;;;;;4995246;28;20045;-69
2021/04/26 10:50:01;;;;;;;3.20;1.08;;;22.90;39.40;;;;;;5003502;28;20052;-68
2021/04/26 10:52:26;;;;;;;;;;;22.90;39.40;;;;;;5028392;22;20029;-66
2021/04/26 10:54:53;;;;;;;2.60;0.93;;;22.90;39.30;;;;;;5022878;28;20430;-64
2021/04/26 10:57:48;;;;;;;2.63;1.00;;;23.00;38.90;;;;;;5049312;28;20412;-64
2021/04/26 11:00:23;;;;;;;1.70;0.90;;;23.00;39.10;;;;;;5036025;28;20076;-64
2021/04/26 11:02:48;;;;;;;4.00;1.00;;;22.90;39.20;;;;;;5039377;28;20506;-64
2021/04/26 11:05:20;;;;;;;2.95;0.93;;;22.90;39.20;;;;;;5051082;28;20025;-64
2021/04/26 11:07:50;;;;;;;;;;;22.90;39.30;;;;;;5033358;28;20029;-65
2021/04/26 11:10:29;;;;;;;;;;;22.80;39.20;;;;;;5045138;28;19909;-64
2021/04/26 11:12:56;;;;;;;7.18;1.92;;;22.80;39.80;;;;;;5041438;28;19940;-63
2021/04/26 11:15:25;;;;;;;7.40;2.58;;;22.80;39.40;;;;;;5043745;28;20025;-63
2021/04/26 11:17:52;;;;;;;10.00;3.50;;;22.80;39.40;;;;;;5032106;28;20488;-65
2021/04/26 11:20:25;;;;;;;13.93;4.20;;;22.70;39.60;;;;;;5050680;28;20025;-65
2021/04/26 11:22:57;;;;;;;11.57;4.07;;;22.60;39.70;;;;;;5030020;28;20017;-66
2021/04/26 11:25:40;;;;;;;10.52;3.30;;;22.60;40.00;;;;;;5048376;28;20092;-63
2021/04/26 11:28:09;;;;;;;12.63;4.07;;;22.60;40.10;;;;;;5050496;28;20056;-63
2021/04/26 11:30:36;;;;;;;10.35;3.38;;;22.60;40.40;;;;;;5032375;28;20021;-63
2021/04/26 11:33:15;;;;;;;10.77;3.03;;;22.50;40.70;;;;;;5032687;28;20029;-63
2021/04/26 11:36:13;;;;;;;11.32;3.63;;;22.50;40.70;;;;;;5044118;28;20026;-65
2021/04/26 11:38:41;;;;;;;11.20;3.30;;;22.40;40.90;;;;;;5051284;28;20025;-63
2021/04/26 11:41:07;;;;;;;10.20;3.08;;;22.40;41.20;;;;;;5033352;28;20720;-63
2021/04/26 11:43:33;;;;;;;10.90;3.10;;;22.30;41.40;;;;;;5048020;28;20112;-63
2021/04/26 11:46:00;;;;;;;10.85;2.95;;;22.20;41.90;;;;;;5037841;28;20049;-63
2021/04/26 11:48:27;;;;;;;10.25;3.00;;;22.20;41.70;;;;;;5032730;28;20031;-63
2021/04/26 11:50:54;;;;;;;8.45;2.80;;;22.10;41.90;;;;;;5031704;28;20388;-65
2021/04/26 11:53:24;;;;;;;10.48;2.70;;;21.90;42.10;;;;;;5040678;28;20021;-63
2021/04/26 11:55:49;;;;;;;10.10;2.78;;;21.80;42.30;;;;;;5048041;28;20040;-64
2021/04/26 11:58:23;;;;;;;7.00;2.30;;;21.70;42.50;;;;;;5049388;28;20029;-66
2021/04/26 12:00:49;;;;;;;9.23;2.65;;;21.60;42.70;;;;;;5051443;28;20530;-63
2021/04/26 12:03:14;;;;;;;8.75;2.53;;;21.50;42.90;;;;;;5028589;28;20048;-63
2021/04/26 12:05:40;;;;;;;7.50;2.38;;;21.40;42.90;;;;;;5040743;28;20021;-63
2021/04/26 12:08:07;;;;;;;6.80;2.50;;;21.30;43.10;;;;;;5051182;28;20446;-65
2021/04/26 12:10:41;;;;;;;6.88;2.03;;;21.30;43.50;;;;;;5050448;28;20028;-63
2021/04/26 12:13:09;;;;;;;6.38;2.53;;;21.20;43.50;;;;;;5045614;28;20024;-63
2021/04/26 12:15:36;;;;;;;8.55;2.20;;;21.10;43.40;;;;;;5048182;28;20071;-64
2021/04/26 12:18:04;;;;;;;6.20;2.08;;;21.20;43.50;;;;;;5050447;28;20096;-66
2021/04/26 12:20:35;;;;;;;6.90;2.15;;;21.00;43.70;;;;;;5046994;28;20037;-63
2021/04/26 12:23:05;;;;;;;8.27;2.22;;;21.00;43.90;;;;;;5048780;28;20029;-66
2021/04/26 12:25:36;;;;;;;9.02;2.28;;;21.00;44.10;;;;;;5046452;28;20044;-63
2021/04/26 12:28:05;;;;;;;7.40;2.05;;;20.90;44.00;;;;;;5050270;28;20111;-63
2021/04/26 12:30:39;;;;;;;6.30;2.10;;;20.80;44.10;;;;;;5046615;28;20040;-63
2021/04/26 12:33:24;;;;;;;8.25;2.30;;;20.80;44.20;;;;;;5032592;28;20029;-63
2021/04/26 12:35:51;;;;;;;5.93;1.80;;;20.80;44.40;;;;;;5046411;28;20068;-64
2021/04/26 12:38:23;;;;;;;4.75;1.70;;;20.70;44.40;;;;;;5047647;28;20109;-63
2021/04/26 12:40:50;;;;;;;6.65;2.15;;;20.70;44.40;;;;;;5045820;28;20056;-63
2021/04/26 12:43:16;;;;;;;6.10;1.77;;;20.70;44.40;;;;;;5045569;28;20071;-62
2021/04/26 12:45:45;;;;;;;7.32;1.88;;;20.60;44.50;;;;;;5043212;28;20396;-63
2021/04/26 12:48:17;;;;;;;4.88;1.70;;;20.50;44.70;;;;;;5042246;28;20029;-63
2021/04/26 12:50:45;;;;;;;7.10;1.80;;;20.50;44.70;;;;;;5017480;28;20036;-63
2021/04/26 12:53:26;;;;;;;5.95;1.90;;;20.50;44.70;;;;;;5047811;28;20428;-63
2021/04/26 12:56:02;;;;;;;5.18;1.55;;;20.50;44.80;;;;;;5045582;28;20064;-63
2021/04/26 12:58:36;;;;;;;5.32;1.77;;;20.40;44.80;;;;;;5049962;28;20017;-63